createdAt,value
2019-04-23T00:01:40.636Z,1.10
2019-04-23T00:04:07.167Z,1.20
2019-04-23T00:06:43.625Z,1.15
2019-04-23T00:09:13.072Z,1.50
2019-04-23T00:11:43.254Z,1.50
2019-04-23T00:14:06.004Z,1.62
2019-04-23T00:16:40.798Z,1.45
2019-04-23T00:19:10.333Z,1.30
2019-04-23T00:21:46.003Z,1.37
2019-04-23T00:25:09.745Z,1.45
2019-04-23T00:27:15.633Z,1.35
2019-04-23T00:29:37.260Z,1.62
2019-04-23T00:32:08.472Z,1.50
2019-04-23T00:34:41.421Z,1.30
2019-04-23T00:37:11.322Z,1.50
2019-04-23T00:39:33.878Z,1.45
2019-04-23T00:42:10.321Z,1.62
2019-04-23T00:44:40.098Z,1.47
2019-04-23T00:47:06.990Z,1.75
2019-04-23T00:49:37.111Z,1.90
2019-04-23T00:52:09.319Z,1.87
2019-04-23T00:54:32.265Z,1.72
2019-04-23T00:57:13.435Z,1.72
2019-04-23T00:59:39.112Z,1.75
2019-04-23T01:02:03.412Z,2.10
2019-04-23T01:04:31.643Z,2.17
2019-04-23T01:07:09.858Z,1.82
2019-04-23T01:09:40.805Z,1.80
2019-04-23T01:12:06.368Z,2.12
2019-04-23T01:14:32.578Z,2.20
2019-04-23T01:17:10.758Z,2.40
2019-04-23T01:19:49.503Z,2.02
2019-04-23T01:22:00.126Z,1.95
2019-04-23T01:24:46.662Z,2.00
2019-04-23T01:27:55.921Z,2.10
2019-04-23T01:32:46.565Z,2.25
2019-04-23T01:35:17.662Z,1.40
2019-04-23T01:37:41.245Z,1.62
2019-04-23T01:47:45.407Z,2.02
2019-04-23T01:50:21.915Z,1.90
2019-04-23T01:52:50.768Z,1.98
2019-04-23T01:55:18.344Z,2.27
2019-04-23T01:57:46.627Z,2.10
2019-04-23T02:00:17.317Z,2.33
2019-04-23T02:02:49.614Z,2.90
2019-04-23T02:05:15.749Z,2.40
2019-04-23T02:10:23.619Z,2.50
2019-04-23T02:12:49.912Z,3.10
2019-04-23T02:17:50.151Z,3.08
2019-04-23T02:20:16.065Z,3.17
2019-04-23T02:25:34.893Z,3.42
2019-04-23T02:28:01.871Z,3.35
2019-04-23T02:33:12.838Z,3.60
2019-04-23T02:40:37.789Z,2.37
2019-04-23T02:43:09.510Z,3.70
2019-04-23T02:45:27.530Z,3.83
2019-04-23T02:48:13.029Z,3.60
2019-04-23T02:53:07.798Z,3.15
2019-04-23T02:55:41.468Z,3.08
2019-04-23T02:58:01.876Z,2.92
2019-04-23T03:03:19.812Z,3.10
2019-04-23T03:05:32.954Z,4.05
2019-04-23T03:13:04.568Z,4.55
2019-04-23T03:16:03.785Z,4.58
2019-04-23T03:24:15.097Z,5.60
2019-04-23T03:29:01.886Z,4.92
2019-04-23T03:38:48.265Z,4.42
2019-04-23T03:43:46.964Z,3.95
2019-04-23T03:48:51.194Z,5.15
2019-04-23T03:56:38.350Z,4.87
2019-04-23T03:58:47.867Z,3.12
2019-04-23T04:09:02.918Z,3.98
2019-04-23T04:11:25.088Z,4.55
2019-04-23T04:16:18.030Z,5.70
2019-04-23T04:21:28.139Z,4.78
2019-04-23T04:23:51.429Z,3.67
2019-04-23T04:26:20.812Z,5.75
2019-04-23T04:28:51.002Z,5.92
2019-04-23T04:31:21.899Z,4.40
2019-04-23T04:36:21.714Z,5.42
2019-04-23T04:41:37.056Z,6.67
2019-04-23T04:44:47.780Z,3.40
2019-04-23T04:48:49.298Z,6.33
2019-04-23T04:51:31.936Z,5.50
2019-04-23T04:54:06.330Z,6.55
2019-04-23T04:58:54.657Z,6.20
2019-04-23T05:03:36.252Z,6.08
2019-04-23T05:06:24.779Z,5.70
2019-04-23T05:08:54.659Z,2.55
2019-04-23T05:11:30.689Z,3.50
2019-04-23T05:16:19.334Z,4.72
2019-04-23T05:18:53.512Z,6.47
2019-04-23T05:21:20.998Z,4.20
2019-04-23T05:26:25.205Z,3.15
2019-04-23T05:31:18.606Z,6.12
2019-04-23T05:33:57.213Z,1.87
2019-04-23T05:41:22.233Z,5.33
2019-04-23T05:43:57.266Z,6.28
2019-04-23T05:46:27.776Z,4.10
2019-04-23T05:48:54.414Z,5.65
2019-04-23T05:51:27.911Z,5.10
2019-04-23T05:56:22.138Z,3.52
2019-04-23T05:58:55.830Z,4.50
2019-04-23T06:06:43.179Z,2.67
2019-04-23T06:08:59.748Z,2.90
2019-04-23T06:11:39.342Z,3.58
2019-04-23T06:14:06.495Z,4.10
2019-04-23T06:16:38.558Z,2.20
2019-04-23T06:19:02.697Z,3.33
2019-04-23T06:21:38.738Z,4.53
2019-04-23T06:29:07.117Z,4.72
2019-04-23T06:31:31.215Z,4.08
2019-04-23T06:34:06.254Z,3.90
2019-04-23T06:38:56.893Z,3.77
2019-04-23T06:41:30.606Z,5.00
2019-04-23T06:46:57.342Z,4.33
2019-04-23T06:49:26.430Z,4.35
2019-04-23T06:52:05.944Z,3.40
2019-04-23T06:54:25.579Z,4.22
2019-04-23T06:57:02.201Z,4.47
2019-04-23T06:59:24.640Z,4.42
2019-04-23T07:02:04.209Z,3.47
2019-04-23T07:04:25.889Z,4.10
2019-04-23T07:07:19.157Z,2.77
2019-04-23T07:09:13.601Z,4.83
2019-04-23T07:11:47.575Z,4.58
2019-04-23T07:14:26.141Z,4.47
2019-04-23T07:16:52.872Z,3.52
2019-04-23T07:22:03.583Z,4.90
2019-04-23T07:24:21.407Z,3.70
2019-04-23T07:26:41.854Z,3.55
2019-04-23T07:29:25.890Z,2.95
2019-04-23T07:31:54.706Z,4.50
2019-04-23T07:34:19.213Z,4.20
2019-04-23T07:36:56.168Z,4.45
2019-04-23T07:48:01.821Z,4.35
2019-04-23T07:53:01.929Z,4.75
2019-04-23T07:55:36.292Z,4.05
2019-04-23T07:58:01.932Z,4.25
2019-04-23T08:00:29.396Z,2.45
2019-04-23T08:02:44.024Z,3.95
2019-04-23T08:07:57.379Z,3.92
2019-04-23T08:10:24.732Z,4.97
2019-04-23T08:12:55.481Z,4.15
2019-04-23T08:15:23.092Z,3.85
2019-04-23T08:17:56.097Z,4.00
2019-04-23T08:20:22.764Z,4.65
2019-04-23T08:22:53.551Z,3.87
2019-04-23T08:25:47.134Z,3.08
2019-04-23T08:28:25.484Z,4.10
2019-04-23T08:30:50.231Z,3.77
2019-04-23T08:35:48.688Z,4.30
2019-04-23T08:38:21.177Z,3.72
2019-04-23T08:46:08.171Z,2.52
2019-04-23T08:48:34.601Z,3.70
2019-04-23T08:51:19.523Z,3.08
2019-04-23T08:53:51.303Z,4.50
2019-04-23T08:56:03.642Z,3.20
2019-04-23T09:01:05.914Z,3.90
2019-04-23T09:06:05.852Z,2.37
2019-04-23T09:08:33.234Z,3.55
2019-04-23T09:11:17.638Z,3.02
2019-04-23T09:16:05.050Z,4.37
2019-04-23T09:18:38.372Z,3.27
2019-04-23T09:21:03.956Z,3.62
2019-04-23T09:28:42.020Z,3.42
2019-04-23T09:36:27.597Z,2.00
2019-04-23T09:41:47.618Z,3.52
2019-04-23T09:49:56.927Z,3.75
2019-04-23T09:55:09.812Z,3.30
2019-04-23T09:59:52.914Z,3.42
2019-04-23T10:04:40.882Z,2.92
2019-04-23T10:07:08.470Z,2.42
2019-04-23T10:09:27.343Z,1.80
2019-04-23T10:11:55.493Z,4.22
2019-04-23T10:14:24.270Z,4.30
2019-04-23T10:16:53.352Z,2.37
2019-04-23T10:19:22.572Z,3.58
2019-04-23T10:21:51.430Z,3.47
2019-04-23T10:24:21.057Z,2.80
2019-04-23T10:26:50.392Z,3.70
2019-04-23T10:29:23.702Z,3.65
2019-04-23T10:31:53.471Z,3.27
2019-04-23T10:36:49.632Z,1.72
2019-04-23T10:39:25.428Z,2.75
2019-04-23T10:41:48.735Z,1.87
2019-04-23T10:44:23.532Z,3.27
2019-04-23T10:47:38.565Z,2.72
2019-04-23T10:50:35.566Z,2.80
2019-04-23T10:53:01.399Z,3.77
2019-04-23T10:55:34.877Z,2.65
2019-04-23T10:57:57.381Z,2.22
2019-04-23T11:00:30.260Z,2.55
2019-04-23T11:03:00.569Z,3.33
2019-04-23T11:05:35.477Z,3.12
2019-04-23T11:07:47.541Z,2.80
2019-04-23T11:13:07.842Z,3.40
2019-04-23T11:18:24.616Z,3.27
2019-04-23T11:20:45.424Z,2.80
2019-04-23T11:23:04.686Z,2.80
2019-04-23T11:30:46.016Z,2.17
2019-04-23T11:36:01.444Z,2.75
2019-04-23T11:38:35.481Z,2.37
2019-04-23T11:40:37.101Z,2.33
2019-04-23T11:43:15.441Z,2.95
2019-04-23T11:45:48.496Z,3.37
2019-04-23T11:48:34.334Z,3.35
2019-04-23T11:51:26.178Z,2.42
2019-04-23T11:53:22.849Z,2.12
2019-04-23T11:55:47.687Z,3.22
2019-04-23T12:01:23.744Z,3.17
2019-04-23T12:03:36.678Z,2.70
2019-04-23T12:06:32.827Z,3.22
2019-04-23T12:12:00.276Z,2.70
2019-04-23T12:14:47.638Z,2.25
2019-04-23T12:17:18.583Z,2.50
2019-04-23T12:20:07.916Z,3.67
2019-04-23T12:27:25.259Z,1.65
2019-04-23T12:29:49.097Z,3.33
2019-04-23T12:40:23.487Z,1.95
2019-04-23T12:52:47.739Z,2.70
2019-04-23T12:57:47.276Z,2.85
2019-04-23T13:00:22.494Z,2.83
2019-04-23T13:05:25.901Z,2.98
2019-04-23T13:10:30.427Z,3.15
2019-04-23T13:13:19.205Z,2.87
2019-04-23T13:15:22.760Z,1.25
2019-04-23T13:17:54.273Z,2.70
2019-04-23T13:20:24.793Z,2.67
2019-04-23T13:22:56.135Z,2.55
2019-04-23T13:25:54.164Z,2.40
2019-04-23T13:33:36.153Z,2.95
2019-04-23T13:36:03.163Z,2.67
2019-04-23T13:38:35.078Z,2.27
2019-04-23T13:41:01.470Z,2.65
2019-04-23T13:43:40.167Z,2.08
2019-04-23T13:51:18.952Z,2.30
2019-04-23T13:53:34.409Z,3.05
2019-04-23T13:55:56.600Z,3.40
2019-04-23T14:01:14.021Z,3.50
2019-04-23T14:03:36.077Z,3.10
2019-04-23T14:06:31.838Z,3.12
2019-04-23T14:11:19.825Z,2.65
2019-04-23T14:13:52.986Z,2.98
2019-04-23T14:16:21.260Z,2.92
2019-04-23T14:21:20.511Z,2.40
2019-04-23T14:28:43.141Z,2.47
2019-04-23T14:31:11.167Z,2.83
2019-04-23T14:33:53.146Z,2.77
2019-04-23T14:36:17.778Z,2.60
2019-04-23T14:38:45.898Z,2.27
2019-04-23T14:41:21.213Z,2.20
2019-04-23T14:43:48.854Z,2.90
2019-04-23T14:46:35.274Z,2.42
2019-04-23T14:51:22.984Z,2.15
2019-04-23T14:53:46.491Z,3.05
2019-04-23T14:58:50.757Z,2.83
2019-04-23T15:03:55.978Z,3.02
2019-04-23T15:16:31.666Z,3.20
2019-04-23T15:19:28.275Z,3.08
2019-04-23T15:27:53.658Z,3.05
2019-04-23T15:28:45.443Z,3.35
2019-04-23T15:31:42.442Z,3.00
2019-04-23T15:41:38.250Z,3.30
2019-04-23T15:44:10.401Z,3.25
2019-04-23T16:01:34.485Z,3.52
2019-04-23T16:03:38.226Z,3.15
2019-04-23T16:06:08.693Z,3.12
2019-04-23T16:09:11.060Z,3.42
2019-04-23T16:14:19.226Z,3.65
2019-04-23T16:16:37.406Z,2.90
2019-04-23T16:24:21.195Z,3.17
2019-04-23T16:26:47.321Z,3.30
2019-04-23T16:29:37.560Z,4.12
2019-04-23T16:34:27.304Z,4.00
2019-04-23T16:36:54.822Z,3.62
2019-04-23T16:39:16.919Z,3.80
2019-04-23T16:41:54.324Z,3.75
2019-04-23T16:46:56.165Z,3.75
2019-04-23T16:51:45.972Z,3.47
2019-04-23T16:54:24.645Z,4.42
2019-04-23T16:59:18.677Z,3.47
2019-04-23T17:01:56.517Z,3.90
2019-04-23T17:06:52.313Z,3.85
2019-04-23T17:09:37.356Z,4.78
2019-04-23T17:12:00.189Z,3.45
2019-04-23T17:16:42.141Z,3.98
2019-04-23T17:21:58.170Z,3.52
2019-04-23T17:27:05.483Z,3.72
2019-04-23T17:29:21.340Z,4.50
2019-04-23T17:31:44.810Z,4.58
2019-04-23T17:34:30.203Z,4.05
2019-04-23T17:39:57.240Z,4.22
2019-04-23T17:42:28.944Z,4.53
2019-04-23T17:45:24.455Z,4.03
2019-04-23T17:47:42.970Z,3.85
2019-04-23T17:50:22.231Z,4.33
2019-04-23T18:05:10.838Z,4.70
2019-04-23T18:15:06.553Z,4.08
2019-04-23T18:20:34.824Z,5.20
2019-04-23T18:25:37.446Z,4.62
2019-04-23T18:28:00.579Z,4.90
2019-04-23T18:36:02.898Z,4.15
2019-04-23T18:46:08.981Z,4.28
2019-04-23T18:48:44.198Z,5.50
2019-04-23T18:51:03.534Z,5.05
2019-04-23T18:53:43.678Z,4.87
2019-04-23T18:58:48.526Z,4.85
2019-04-23T19:04:29.314Z,5.78
2019-04-23T19:06:40.734Z,5.30
2019-04-23T19:10:10.749Z,5.40
2019-04-23T19:12:41.404Z,5.20
2019-04-23T19:15:37.312Z,4.80
2019-04-23T19:20:16.307Z,4.95
2019-04-23T19:22:46.960Z,5.20
2019-04-23T19:27:40.482Z,5.17
2019-04-23T19:32:57.405Z,5.20
2019-04-23T19:35:40.164Z,5.78
2019-04-23T19:40:24.633Z,5.33
2019-04-23T19:45:21.317Z,5.05
2019-04-23T19:47:58.716Z,5.40
2019-04-23T19:50:29.336Z,5.10
2019-04-23T19:53:03.110Z,5.80
2019-04-23T19:55:18.657Z,6.20
2019-04-23T19:57:50.671Z,6.05
2019-04-23T20:00:19.480Z,5.20
2019-04-23T20:05:15.404Z,5.53
2019-04-23T20:07:55.426Z,4.95
2019-04-23T20:10:12.353Z,5.08
2019-04-23T20:13:01.528Z,4.90
2019-04-23T20:15:07.359Z,5.17
2019-04-23T20:20:18.214Z,5.72
2019-04-23T20:35:46.862Z,5.62
2019-04-23T20:41:03.473Z,4.67
2019-04-23T20:43:15.333Z,5.90
2019-04-23T20:45:48.150Z,5.42
2019-04-23T20:48:20.013Z,5.08
2019-04-23T20:50:44.441Z,5.70
2019-04-23T20:53:17.738Z,6.37
2019-04-23T20:58:20.946Z,6.33
2019-04-23T21:01:19.120Z,5.83
2019-04-23T21:06:08.814Z,5.92
2019-04-23T21:11:04.815Z,5.97
2019-04-23T21:16:05.035Z,6.83
2019-04-23T21:21:09.415Z,5.83
2019-04-23T21:23:38.422Z,6.03
2019-04-23T21:25:58.927Z,5.75
2019-04-23T21:33:55.371Z,5.75
2019-04-23T21:36:37.745Z,5.83
2019-04-23T21:39:47.641Z,6.08
2019-04-23T21:42:08.757Z,5.67
2019-04-23T21:44:35.883Z,5.00
2019-04-23T21:47:08.967Z,4.65
2019-04-23T21:49:50.624Z,6.20
2019-04-23T21:52:05.005Z,5.72
2019-04-23T21:57:00.593Z,5.67
2019-04-23T21:59:34.514Z,5.97
2019-04-23T22:04:39.839Z,5.62
2019-04-23T22:07:25.907Z,5.40
2019-04-23T22:09:46.062Z,5.30
2019-04-23T22:14:42.038Z,5.75
2019-04-23T22:17:13.213Z,5.70
2019-04-23T22:19:38.679Z,6.35
2019-04-23T22:22:05.849Z,6.28
2019-04-23T22:24:43.416Z,5.00
2019-04-23T22:27:08.619Z,5.58
2019-04-23T22:32:30.449Z,6.00
2019-04-23T22:34:42.451Z,5.97
2019-04-23T22:37:11.174Z,5.35
2019-04-23T22:39:41.845Z,5.67
2019-04-23T22:42:22.268Z,5.30
2019-04-23T22:44:52.926Z,6.03
2019-04-23T22:47:08.756Z,5.25
2019-04-23T22:49:45.155Z,6.00
2019-04-23T22:52:16.062Z,6.17
2019-04-23T22:54:51.688Z,5.35
2019-04-23T22:57:04.800Z,5.55
2019-04-23T23:00:00.960Z,5.80
2019-04-23T23:02:25.433Z,5.45
2019-04-23T23:05:10.343Z,5.33
2019-04-23T23:07:29.002Z,5.25
2019-04-23T23:10:03.998Z,5.30
2019-04-23T23:12:34.483Z,5.72
2019-04-23T23:15:00.947Z,5.65
2019-04-23T23:17:20.819Z,5.30
2019-04-23T23:22:27.582Z,5.62
2019-04-23T23:24:56.367Z,5.45
2019-04-23T23:27:23.400Z,4.87
2019-04-23T23:37:20.694Z,5.33
2019-04-23T23:40:02.501Z,5.15
2019-04-23T23:47:38.103Z,4.95
2019-04-23T23:50:00.984Z,5.10
2019-04-23T23:52:31.232Z,5.62
2019-04-23T23:54:52.652Z,5.20
2019-04-23T23:57:23.375Z,5.53
